Olimpia, Brazil
Current Conditions -  °F | °C
As of 4:00 PM on Tuesday 21 Oct 2014 (Local Time) from SBSR Reporting Station
Scattered Clouds Scattered Clouds  
Wind Chill: 90°   Ceiling: Unl
Heat Index: 90°   Visibility: 6mi
Dew Point: 57°   Wind: 8mph
Humidity: 33%   Direction: 200°SSW
Pressure: 30"   Gusts: NA
Location:  20.73°S, 48.92°W
Report Text: SBSR 211800Z 20007KT 9999 SCT045 SCT080 32/14 Q1016
Loading
Personal Weather Stations






























Interactive Weather Map
Tropical Storm Tracking
New forecast layout! Learn more

10-Day Weather Forecast

Advertisements
Track Severe Weather on mobile